createdAt,value
2022-09-01T04:00:37.290Z,73.88
2022-09-01T04:01:37.343Z,73.88
2022-09-01T04:02:37.396Z,74.19
2022-09-01T04:03:37.222Z,74.02
2022-09-01T04:04:37.220Z,74.52
2022-09-01T04:05:37.203Z,75.13
2022-09-01T04:06:37.186Z,75.13
2022-09-01T04:07:37.206Z,74.99
2022-09-01T04:08:37.171Z,74.73
2022-09-01T04:09:37.163Z,74.59
2022-09-01T04:10:37.150Z,74.69
2022-09-01T04:11:45.730Z,74.02
2022-09-01T04:12:37.118Z,74.63
2022-09-01T04:13:37.107Z,75.03
2022-09-01T04:14:37.127Z,75.13
2022-09-01T04:15:37.100Z,74.73
2022-09-01T04:16:37.152Z,75.03
2022-09-01T04:17:37.064Z,74.93
2022-09-01T04:18:37.058Z,75.54
2022-09-01T04:19:37.279Z,75.54
2022-09-01T04:20:37.026Z,75.13
2022-09-01T04:21:37.024Z,74.83
2022-09-01T04:22:42.050Z,75.23
2022-09-01T04:23:36.999Z,75.13
2022-09-01T04:24:36.991Z,75.43
2022-09-01T04:25:36.970Z,75.63
2022-09-01T04:26:36.964Z,75.34
2022-09-01T04:27:36.953Z,75.63
2022-09-01T04:28:36.950Z,74.96
2022-09-01T04:29:36.955Z,75.34
2022-09-01T04:30:36.912Z,75.23
2022-09-01T04:31:36.951Z,75.13
2022-09-01T04:32:36.890Z,75.43
2022-09-01T04:33:41.901Z,74.93
2022-09-01T04:34:36.885Z,75.34
2022-09-01T04:35:37.951Z,74.96
2022-09-01T04:36:36.845Z,75.63
2022-09-01T04:37:36.838Z,75.16
2022-09-01T04:38:36.821Z,75.07
2022-09-01T04:39:36.814Z,75.47
2022-09-01T04:40:36.853Z,75.27
2022-09-01T04:41:36.790Z,75.47
2022-09-01T04:42:36.777Z,75.27
2022-09-01T04:43:36.765Z,75.07
2022-09-01T04:44:41.787Z,75.27
2022-09-01T04:45:36.836Z,75.07
2022-09-01T04:46:36.732Z,74.96
2022-09-01T04:47:36.725Z,74.96
2022-09-01T04:48:36.710Z,75.98
2022-09-01T04:49:36.703Z,75.87
2022-09-01T04:50:36.701Z,75.77
2022-09-01T04:51:36.694Z,75.98
2022-09-01T04:52:36.663Z,75.57
2022-09-01T04:53:36.654Z,76.18
2022-09-01T04:54:36.641Z,75.98
2022-09-01T04:55:41.664Z,76.31
2022-09-01T04:56:36.630Z,76.31
2022-09-01T04:57:36.611Z,76.01
2022-09-01T04:58:36.594Z,76.01
2022-09-01T04:59:36.588Z,76.21
2022-09-01T05:00:36.620Z,76.01
2022-09-01T05:01:36.562Z,76.11
2022-09-01T05:02:36.618Z,76.07
2022-09-01T05:03:36.541Z,76.01
2022-09-01T05:04:36.534Z,76.28
2022-09-01T05:05:36.535Z,76.31
2022-09-01T05:06:41.526Z,76.01
2022-09-01T05:07:36.496Z,76.11
2022-09-01T05:08:36.487Z,76.21
2022-09-01T05:09:36.501Z,75.81
2022-09-01T05:10:36.468Z,75.57
2022-09-01T05:11:36.450Z,75.16
2022-09-01T05:12:36.444Z,75.27
2022-09-01T05:13:36.428Z,75.57
2022-09-01T05:14:36.418Z,75.27
2022-09-01T05:15:36.417Z,75.27
2022-09-01T05:16:36.470Z,75.47
2022-09-01T05:17:41.404Z,75.37
2022-09-01T05:18:36.383Z,75.57
2022-09-01T05:19:36.380Z,74.87
2022-09-01T05:20:36.360Z,75.40
2022-09-01T05:21:36.336Z,75.31
2022-09-01T05:22:36.329Z,75.16
2022-09-01T05:23:36.316Z,75.40
2022-09-01T05:24:41.250Z,75.77
2022-09-01T05:25:37.382Z,75.77
2022-09-01T05:26:36.278Z,75.40
2022-09-01T05:27:36.305Z,75.57
2022-09-01T05:28:41.275Z,75.47
2022-09-01T05:29:36.500Z,76.07
2022-09-01T05:30:36.258Z,75.27
2022-09-01T05:31:36.242Z,75.57
2022-09-01T05:32:36.211Z,74.66
2022-09-01T05:33:36.200Z,75.16
2022-09-01T05:34:36.187Z,75.07
2022-09-01T05:35:36.191Z,74.87
2022-09-01T05:36:36.164Z,75.57
2022-09-01T05:37:36.153Z,74.87
2022-09-01T05:38:36.141Z,74.96
2022-09-01T05:39:41.157Z,75.07
2022-09-01T05:40:36.173Z,74.76
2022-09-01T05:41:36.114Z,74.87
2022-09-01T05:42:36.096Z,75.47
2022-09-01T05:43:36.112Z,75.03
2022-09-01T05:44:36.076Z,75.13
2022-09-01T05:45:50.369Z,75.43
2022-09-01T05:46:37.140Z,75.03
2022-09-01T05:47:36.065Z,74.52
2022-09-01T05:48:36.028Z,75.13
2022-09-01T05:49:36.019Z,74.32
2022-09-01T05:50:41.039Z,74.52
2022-09-01T05:51:45.495Z,74.32
2022-09-01T05:52:37.022Z,73.92
2022-09-01T05:53:35.976Z,74.22
2022-09-01T05:54:36.103Z,74.02
2022-09-01T05:55:35.961Z,73.52
2022-09-01T05:56:37.638Z,74.02
2022-09-01T05:57:35.929Z,74.32
2022-09-01T05:59:36.904Z,73.72
2022-09-01T06:00:35.901Z,73.72
2022-09-01T06:01:41.104Z,74.12
2022-09-01T06:02:35.986Z,74.32
2022-09-01T06:03:38.035Z,73.92
2022-09-01T06:04:35.851Z,73.52
2022-09-01T06:05:35.879Z,73.82
2022-09-01T06:06:48.893Z,74.66
2022-09-01T06:07:36.812Z,74.05
2022-09-01T06:08:35.802Z,74.26
2022-09-01T06:09:35.798Z,74.56
2022-09-01T06:10:35.790Z,74.66
2022-09-01T06:11:35.767Z,74.76
2022-09-01T06:12:40.890Z,74.76
2022-09-01T06:13:35.746Z,75.47
2022-09-01T06:14:35.740Z,74.87
2022-09-01T06:15:35.733Z,75.07
2022-09-01T06:16:35.773Z,75.16
2022-09-01T06:17:36.775Z,74.87
2022-09-01T06:18:35.692Z,75.07
2022-09-01T06:19:37.416Z,75.07
2022-09-01T06:20:35.677Z,74.96
2022-09-01T06:21:35.654Z,75.57
2022-09-01T06:22:35.651Z,75.57
2022-09-01T06:23:40.676Z,75.57
2022-09-01T06:24:35.621Z,74.87
2022-09-01T06:25:35.661Z,75.16
2022-09-01T06:26:35.597Z,74.66
2022-09-01T06:27:35.586Z,74.96
2022-09-01T06:28:35.594Z,74.66
2022-09-01T06:29:35.570Z,74.76
2022-09-01T06:30:35.560Z,74.76
2022-09-01T06:31:35.583Z,75.16
2022-09-01T06:32:35.531Z,75.67
2022-09-01T06:33:35.518Z,75.37
2022-09-01T06:34:40.529Z,75.57
2022-09-01T06:35:35.508Z,75.07
2022-09-01T06:36:35.480Z,74.76
2022-09-01T06:37:35.483Z,74.76
2022-09-01T06:38:35.458Z,74.32
2022-09-01T06:39:35.479Z,73.96
2022-09-01T06:40:35.648Z,73.92
2022-09-01T06:41:35.428Z,73.62
2022-09-01T06:42:35.450Z,73.72
2022-09-01T06:43:35.407Z,74.12
2022-09-01T06:44:40.709Z,74.02
2022-09-01T06:45:41.431Z,74.26
2022-09-01T06:46:35.439Z,73.92
2022-09-01T06:47:35.360Z,74.12
2022-09-01T06:48:35.346Z,74.43
2022-09-01T06:49:35.342Z,74.22
2022-09-01T06:51:36.312Z,73.68
2022-09-01T06:53:36.327Z,73.68
2022-09-01T06:54:35.290Z,73.79
2022-09-01T06:55:35.281Z,73.28
2022-09-01T06:56:44.591Z,73.05
2022-09-01T06:58:36.496Z,73.05
2022-09-01T06:59:35.227Z,72.85
2022-09-01T07:00:35.227Z,73.05
2022-09-01T07:01:35.273Z,72.94
2022-09-01T07:02:35.272Z,73.14
2022-09-01T07:03:35.179Z,73.05
2022-09-01T07:04:35.988Z,73.45
2022-09-01T07:09:19.858Z,73.25
2022-09-01T07:09:47.308Z,73.11
2022-09-01T07:11:19.590Z,73.05
2022-09-01T07:12:36.075Z,73.11
2022-09-01T07:13:35.074Z,72.61
2022-09-01T07:14:35.587Z,73.41
2022-09-01T07:16:40.482Z,73.11
2022-09-01T07:17:36.015Z,73.21
2022-09-01T07:18:40.036Z,72.71
2022-09-01T07:19:50.483Z,72.51
2022-09-01T07:20:37.662Z,73.28
2022-09-01T07:22:37.228Z,72.37
2022-09-01T07:24:35.941Z,72.47
2022-09-01T07:26:35.914Z,71.67
2022-09-01T07:27:40.636Z,71.83
2022-09-01T07:28:36.652Z,71.53
2022-09-01T07:29:41.573Z,71.40
2022-09-01T07:30:34.886Z,71.30
2022-09-01T07:31:50.570Z,71.00
2022-09-01T07:32:43.532Z,70.59
2022-09-01T07:33:44.209Z,70.26
2022-09-01T07:35:35.825Z,70.16
2022-09-01T07:37:16.202Z,70.16
2022-09-01T07:39:48.615Z,69.96
2022-09-01T07:39:51.765Z,70.16
2022-09-01T07:42:31.433Z,72.00
2022-09-01T07:43:35.722Z,70.12
2022-09-01T07:44:34.727Z,70.12
2022-09-01T07:45:34.712Z,69.52
2022-09-01T07:46:38.114Z,70.12
2022-09-01T07:49:01.908Z,70.16
2022-09-01T07:50:11.131Z,70.86
2022-09-01T07:51:07.653Z,71.20
2022-09-01T07:51:40.713Z,71.20
2022-09-01T07:52:34.629Z,71.26
2022-09-01T07:53:34.611Z,71.16
2022-09-01T07:54:34.633Z,70.96
2022-09-01T07:55:34.600Z,71.26
2022-09-01T07:56:39.754Z,71.26
2022-09-01T07:57:35.568Z,71.36
2022-09-01T07:58:34.559Z,71.67
2022-09-01T07:59:34.546Z,71.77
2022-09-01T08:00:34.563Z,71.36
2022-09-01T08:01:34.579Z,71.53
2022-09-01T08:02:39.559Z,71.47
2022-09-01T08:03:34.601Z,71.13
2022-09-01T08:04:34.554Z,71.33
2022-09-01T08:05:34.489Z,71.53
2022-09-01T08:06:41.117Z,71.63
2022-09-01T08:07:51.651Z,71.23
2022-09-01T08:08:35.929Z,71.33
2022-09-01T08:09:38.162Z,72.13
2022-09-01T08:10:36.949Z,71.47
2022-09-01T08:12:00.707Z,72.17
2022-09-01T08:12:35.397Z,71.77
2022-09-01T08:13:41.894Z,72.64
2022-09-01T08:14:34.413Z,72.57
2022-09-01T08:16:06.567Z,73.07
2022-09-01T08:16:51.897Z,72.87
2022-09-01T08:17:50.769Z,71.63
2022-09-01T08:18:50.389Z,71.33
2022-09-01T08:19:35.670Z,71.33
2022-09-01T08:20:34.340Z,71.73
2022-09-01T08:21:34.292Z,71.43
2022-09-01T08:22:34.285Z,72.13
2022-09-01T08:23:34.276Z,71.30
2022-09-01T08:24:39.303Z,71.09
2022-09-01T08:25:34.259Z,71.09
2022-09-01T08:26:34.237Z,70.76
2022-09-01T08:27:34.232Z,69.96
2022-09-01T08:28:34.217Z,70.19
2022-09-01T08:29:34.200Z,69.76
2022-09-01T08:30:34.208Z,69.76
2022-09-01T08:31:34.249Z,69.66
2022-09-01T08:32:34.169Z,69.92
2022-09-01T08:33:34.156Z,69.73
2022-09-01T08:34:34.145Z,69.59
2022-09-01T08:35:39.181Z,69.59
2022-09-01T08:36:35.425Z,68.19
2022-09-01T08:37:34.975Z,68.49
2022-09-01T08:38:34.101Z,68.76
2022-09-01T08:39:34.092Z,68.05
2022-09-01T08:40:34.111Z,68.65
2022-09-01T08:41:35.502Z,68.79
2022-09-01T08:42:34.057Z,68.85
2022-09-01T08:43:34.063Z,68.79
2022-09-01T08:44:34.036Z,68.65
2022-09-01T08:45:34.023Z,68.39
2022-09-01T08:46:39.138Z,68.99
2022-09-01T08:47:49.240Z,69.42
2022-09-01T08:49:23.656Z,69.53
2022-09-01T08:49:43.002Z,69.62
2022-09-01T08:50:34.980Z,69.66
2022-09-01T08:51:33.955Z,70.06
2022-09-01T08:52:33.942Z,69.46
2022-09-01T08:53:33.932Z,69.73
2022-09-01T08:54:33.921Z,69.73
2022-09-01T08:55:33.923Z,69.73
2022-09-01T08:56:33.903Z,69.53
2022-09-01T08:57:38.906Z,69.62
2022-09-01T08:58:33.879Z,68.89
2022-09-01T08:59:33.864Z,68.59
2022-09-01T09:00:33.866Z,68.39
2022-09-01T09:01:33.868Z,68.79
2022-09-01T09:02:33.855Z,68.59
2022-09-01T09:03:41.159Z,68.99
2022-09-01T09:04:34.826Z,68.89
2022-09-01T09:05:33.808Z,68.85
2022-09-01T09:06:33.788Z,68.46
2022-09-01T09:07:33.774Z,68.15
2022-09-01T09:08:38.791Z,66.82
2022-09-01T09:09:34.197Z,66.62
2022-09-01T09:10:33.757Z,66.49
2022-09-01T09:11:33.727Z,66.78
2022-09-01T09:12:33.720Z,66.69
2022-09-01T09:13:33.708Z,66.46
2022-09-01T09:14:33.695Z,66.25
2022-09-01T09:15:33.747Z,65.05
2022-09-01T09:16:33.695Z,66.16
2022-09-01T09:17:33.660Z,65.83
2022-09-01T09:18:39.274Z,64.32
2022-09-01T09:19:39.681Z,64.52
2022-09-01T09:20:33.643Z,65.45
2022-09-01T09:21:33.615Z,65.25
2022-09-01T09:22:33.605Z,65.66
2022-09-01T09:23:33.607Z,65.52
2022-09-01T09:24:37.877Z,65.16
2022-09-01T09:25:34.596Z,65.16
2022-09-01T09:26:48.065Z,65.16
2022-09-01T09:27:34.552Z,65.36
2022-09-01T09:28:33.537Z,64.32
2022-09-01T09:29:33.523Z,64.22
2022-09-01T09:30:38.706Z,64.19
2022-09-01T09:31:33.909Z,64.29
2022-09-01T09:32:57.776Z,64.49
2022-09-01T09:33:51.117Z,63.89
2022-09-01T09:34:34.479Z,63.49
2022-09-01T09:35:33.456Z,63.46
2022-09-01T09:36:33.461Z,63.26
2022-09-01T09:37:33.435Z,63.26
2022-09-01T09:38:33.822Z,63.46
2022-09-01T09:39:33.424Z,62.46
2022-09-01T09:40:47.880Z,62.34
2022-09-01T09:41:39.865Z,62.63
2022-09-01T09:42:36.424Z,62.63
2022-09-01T09:43:33.369Z,62.63
2022-09-01T09:44:33.358Z,62.01
2022-09-01T09:45:33.360Z,61.68
2022-09-01T09:46:33.533Z,61.18
2022-09-01T09:47:43.208Z,60.68
2022-09-01T09:48:34.314Z,60.68
2022-09-01T09:49:36.068Z,61.27
2022-09-01T09:50:33.293Z,59.70
2022-09-01T09:51:33.294Z,59.91
2022-09-01T09:52:38.318Z,60.03
2022-09-01T09:53:33.316Z,59.94
2022-09-01T09:54:33.291Z,61.24
2022-09-01T09:55:33.236Z,61.24
2022-09-01T09:56:33.241Z,61.26
2022-09-01T09:57:33.224Z,62.09
2022-09-01T09:58:33.206Z,62.59
2022-09-01T09:59:56.975Z,62.39
2022-09-01T10:00:34.185Z,62.79
2022-09-01T10:01:33.212Z,61.79
2022-09-01T10:02:33.303Z,62.29
2022-09-01T10:03:38.221Z,62.49
2022-09-01T10:04:33.193Z,61.09
2022-09-01T10:05:33.137Z,61.59
2022-09-01T10:06:33.136Z,60.86
2022-09-01T10:07:33.126Z,61.87
2022-09-01T10:08:33.130Z,61.76
2022-09-01T10:09:33.093Z,61.76
2022-09-01T10:10:33.071Z,60.66
2022-09-01T10:11:35.503Z,60.14
2022-09-01T10:12:33.062Z,60.44
2022-09-01T10:13:33.211Z,60.33
2022-09-01T10:14:53.157Z,60.16
2022-09-01T10:15:34.038Z,59.23
2022-09-01T10:16:33.090Z,58.73
2022-09-01T10:17:32.990Z,58.91
2022-09-01T10:18:33.184Z,59.81
2022-09-01T10:19:35.750Z,58.88
2022-09-01T10:20:33.000Z,58.88
2022-09-01T10:21:32.982Z,58.58
2022-09-01T10:22:33.068Z,58.41
2022-09-01T10:23:33.114Z,58.21
2022-09-01T10:24:32.911Z,58.41
2022-09-01T10:25:37.940Z,58.18
2022-09-01T10:26:32.902Z,58.18
2022-09-01T10:27:32.882Z,58.18
2022-09-01T10:28:32.870Z,58.11
2022-09-01T10:29:34.800Z,58.78
2022-09-01T10:30:32.991Z,58.78
2022-09-01T10:31:33.063Z,58.88
2022-09-01T10:32:37.891Z,58.18
2022-09-01T10:33:36.984Z,58.98
2022-09-01T10:34:32.810Z,58.18
2022-09-01T10:35:32.786Z,57.95
2022-09-01T10:36:37.938Z,57.63
2022-09-01T10:37:32.766Z,56.63
2022-09-01T10:38:32.753Z,56.21
2022-09-01T10:39:36.734Z,54.68
2022-09-01T10:40:33.764Z,54.98
2022-09-01T10:41:35.725Z,54.28
2022-09-01T10:42:32.709Z,54.71
2022-09-01T10:43:36.364Z,54.61
2022-09-01T10:44:33.696Z,54.61
2022-09-01T10:45:32.678Z,55.11
2022-09-01T10:46:41.855Z,54.71
2022-09-01T10:47:38.713Z,54.64
2022-09-01T10:48:36.421Z,55.13
2022-09-01T10:49:33.631Z,55.06
2022-09-01T10:50:35.423Z,56.16
2022-09-01T10:51:38.476Z,55.76
2022-09-01T10:52:33.613Z,55.86
2022-09-01T10:53:33.885Z,56.26
2022-09-01T10:54:38.492Z,55.69
2022-09-01T10:55:33.582Z,56.18
2022-09-01T10:56:36.597Z,56.38
2022-09-01T10:57:32.546Z,56.06
2022-09-01T10:59:38.634Z,55.43
2022-09-01T11:00:37.099Z,55.71
2022-09-01T11:01:47.853Z,54.91
2022-09-01T11:02:42.379Z,54.71
2022-09-01T11:03:40.907Z,55.11
2022-09-01T11:04:33.522Z,54.98
2022-09-01T11:05:33.433Z,54.51
2022-09-01T11:06:33.211Z,54.81
2022-09-01T11:07:50.400Z,54.61
2022-09-01T11:08:33.417Z,54.81
2022-09-01T11:09:37.448Z,54.01
2022-09-01T11:10:33.795Z,54.51
2022-09-01T11:11:32.381Z,54.61
2022-09-01T11:12:32.456Z,54.91
2022-09-01T11:13:32.366Z,54.79
2022-09-01T11:14:32.361Z,53.69
2022-09-01T11:15:32.338Z,53.69
2022-09-01T11:16:49.421Z,53.69
2022-09-01T11:17:33.417Z,53.69
2022-09-01T11:18:32.314Z,52.39
2022-09-01T11:19:32.303Z,53.39
2022-09-01T11:20:37.306Z,54.01
2022-09-01T11:21:32.271Z,54.01
2022-09-01T11:22:32.273Z,53.81
2022-09-01T11:23:32.249Z,54.61
2022-09-01T11:24:32.256Z,54.19
2022-09-01T11:25:39.777Z,53.49
2022-09-01T11:26:33.217Z,52.86
2022-09-01T11:27:32.228Z,52.69
2022-09-01T11:28:32.205Z,54.08
2022-09-01T11:29:32.183Z,54.19
2022-09-01T11:30:32.202Z,53.66
2022-09-01T11:31:37.267Z,54.26
2022-09-01T11:32:32.148Z,54.06
2022-09-01T11:33:32.140Z,52.86
2022-09-01T11:34:32.125Z,52.86
2022-09-01T11:35:32.126Z,52.74
2022-09-01T11:36:32.103Z,52.74
2022-09-01T11:37:32.111Z,51.95
2022-09-01T11:38:32.082Z,52.99
2022-09-01T11:39:32.101Z,51.70
2022-09-01T11:40:32.498Z,50.80
2022-09-01T11:41:32.054Z,51.30
2022-09-01T11:42:37.069Z,50.90
2022-09-01T11:43:32.044Z,51.70
2022-09-01T11:44:32.016Z,52.22
2022-09-01T11:45:32.062Z,51.92
2022-09-01T11:46:31.990Z,52.42
2022-09-01T11:47:31.995Z,52.22
2022-09-01T11:48:31.970Z,52.12
2022-09-01T11:49:31.963Z,51.82
2022-09-01T11:50:31.946Z,52.22
2022-09-01T11:51:31.936Z,51.62
2022-09-01T11:52:31.938Z,51.12
2022-09-01T11:53:36.939Z,50.93
2022-09-01T11:54:31.903Z,51.32
2022-09-01T11:55:31.891Z,51.12
2022-09-01T11:56:31.930Z,50.52
2022-09-01T11:57:31.890Z,51.05
2022-09-01T11:58:31.869Z,51.05
2022-09-01T11:59:31.848Z,50.63
2022-09-01T12:00:31.837Z,51.10
2022-09-01T12:01:31.824Z,50.90
2022-09-01T12:02:32.179Z,49.38
2022-09-01T12:03:31.983Z,49.46
2022-09-01T12:04:36.931Z,49.46
2022-09-01T12:05:31.781Z,49.38
2022-09-01T12:06:31.766Z,49.78
2022-09-01T12:07:31.779Z,50.43
2022-09-01T12:08:31.750Z,50.73
2022-09-01T12:09:31.742Z,51.15
2022-09-01T12:10:31.725Z,52.04
2022-09-01T12:11:31.714Z,51.95
2022-09-01T12:12:31.710Z,51.45
2022-09-01T12:13:31.703Z,50.85
2022-09-01T12:14:48.827Z,50.60
2022-09-01T12:15:39.307Z,48.74
2022-09-01T12:16:32.704Z,47.58
2022-09-01T12:17:31.662Z,45.14
2022-09-01T12:18:31.632Z,43.61
2022-09-01T12:19:31.623Z,42.48
2022-09-01T12:20:31.610Z,42.96
2022-09-01T12:21:31.603Z,42.07
2022-09-01T12:22:31.629Z,40.47
2022-09-01T12:23:31.585Z,41.36
2022-09-01T12:24:31.568Z,39.95
2022-09-01T12:25:31.561Z,39.44
2022-09-01T12:26:36.585Z,39.64
2022-09-01T12:27:31.558Z,39.11
2022-09-01T12:28:31.559Z,39.09
2022-09-01T12:29:32.403Z,39.23
2022-09-01T12:30:31.510Z,40.84
2022-09-01T12:31:31.522Z,40.13
2022-09-01T12:32:31.496Z,40.45
2022-09-01T12:33:31.490Z,40.31
2022-09-01T12:34:31.461Z,40.13
2022-09-01T12:35:31.453Z,39.86
2022-09-01T12:36:31.504Z,41.24
2022-09-01T12:37:31.427Z,40.62
2022-09-01T12:38:31.428Z,39.20
2022-09-01T12:39:36.437Z,39.48
2022-09-01T12:40:31.510Z,40.00
2022-09-01T12:41:31.411Z,40.01
2022-09-01T12:42:32.446Z,39.89
2022-09-01T12:43:32.373Z,39.34
2022-09-01T12:44:31.349Z,38.62
2022-09-01T12:45:31.402Z,37.72
2022-09-01T12:46:31.343Z,37.92
2022-09-01T12:47:31.326Z,38.76
2022-09-01T12:48:31.547Z,39.18
2022-09-01T12:49:31.314Z,39.70
2022-09-01T12:50:31.293Z,40.17
2022-09-01T12:51:31.746Z,39.15
2022-09-01T12:52:36.334Z,38.28
2022-09-01T12:53:31.293Z,39.40
2022-09-01T12:54:31.280Z,40.37
2022-09-01T12:56:32.225Z,39.86
2022-09-01T12:57:31.212Z,40.21
2022-09-01T12:58:31.212Z,41.33
2022-09-01T12:59:37.250Z,41.38
2022-09-01T13:00:32.179Z,42.08
2022-09-01T13:01:31.241Z,42.01
2022-09-01T13:02:31.305Z,43.31
2022-09-01T13:03:31.166Z,43.21
2022-09-01T13:04:31.139Z,43.53
2022-09-01T13:05:41.716Z,43.65
2022-09-01T13:06:32.135Z,45.20
2022-09-01T13:07:31.132Z,45.70
2022-09-01T13:08:31.112Z,46.12
2022-09-01T13:09:31.086Z,46.42
2022-09-01T13:10:32.666Z,46.64
2022-09-01T13:12:05.878Z,46.44
2022-09-01T13:12:32.057Z,47.13
2022-09-01T13:13:31.060Z,47.23
2022-09-01T13:14:31.024Z,46.71
2022-09-01T13:15:31.018Z,46.83
2022-09-01T13:16:31.037Z,46.44
2022-09-01T13:17:30.994Z,47.55
2022-09-01T13:19:10.619Z,46.76
2022-09-01T13:19:32.003Z,47.45
2022-09-01T13:20:30.982Z,48.35
2022-09-01T13:21:31.017Z,45.86
2022-09-01T13:22:30.936Z,45.76
2022-09-01T13:23:30.938Z,45.37
2022-09-01T13:24:31.909Z,46.06
2022-09-01T13:25:30.905Z,45.67
2022-09-01T13:26:30.893Z,45.79
2022-09-01T13:27:30.882Z,45.09
2022-09-01T13:28:30.895Z,45.09
2022-09-01T13:29:30.859Z,45.68
2022-09-01T13:30:30.847Z,45.59
2022-09-01T13:31:36.278Z,47.28
2022-09-01T13:32:30.873Z,46.58
2022-09-01T13:34:08.599Z,46.98
2022-09-01T13:34:31.899Z,47.08
2022-09-01T13:35:30.793Z,47.50
2022-09-01T13:37:31.785Z,46.50
2022-09-01T13:38:30.772Z,47.32
2022-09-01T13:39:30.748Z,47.22
2022-09-01T13:40:30.768Z,48.02
2022-09-01T13:41:30.728Z,48.32
2022-09-01T13:42:35.735Z,48.41
2022-09-01T13:43:31.392Z,48.11
2022-09-01T13:44:30.707Z,48.11
2022-09-01T13:45:30.706Z,48.91
2022-09-01T13:46:30.672Z,48.02
2022-09-01T13:47:30.987Z,48.61
2022-09-01T13:49:02.470Z,48.41
2022-09-01T13:51:14.148Z,47.52
2022-09-01T13:51:31.621Z,47.72
2022-09-01T13:52:30.602Z,47.22
2022-09-01T13:53:35.631Z,47.52
2022-09-01T13:54:30.581Z,47.02
2022-09-01T13:55:30.590Z,47.42
2022-09-01T13:56:30.558Z,47.82
2022-09-01T13:57:32.843Z,48.22
2022-09-01T13:58:31.556Z,47.72
2022-09-01T13:59:30.525Z,47.02
2022-09-01T14:00:30.530Z,48.11
2022-09-01T14:01:30.503Z,47.32
2022-09-01T14:02:30.492Z,47.32
2022-09-01T14:03:30.503Z,48.52
2022-09-01T14:04:35.585Z,48.11
2022-09-01T14:05:30.462Z,48.41
2022-09-01T14:06:30.448Z,47.92
2022-09-01T14:07:30.467Z,48.29
2022-09-01T14:08:30.440Z,48.10
2022-09-01T14:09:30.414Z,47.20
2022-09-01T14:10:30.423Z,46.90
2022-09-01T14:11:30.390Z,47.40
2022-09-01T14:12:30.377Z,47.38
2022-09-01T14:13:30.463Z,47.08
2022-09-01T14:15:36.369Z,45.89
2022-09-01T14:16:30.436Z,45.49
2022-09-01T14:17:30.324Z,45.89
2022-09-01T14:18:30.323Z,46.20
2022-09-01T14:19:30.302Z,46.48
2022-09-01T14:20:30.297Z,46.98
2022-09-01T14:21:30.285Z,46.90
2022-09-01T14:22:31.084Z,46.41
2022-09-01T14:23:30.271Z,46.90
2022-09-01T14:24:30.323Z,47.10
2022-09-01T14:25:30.233Z,47.70
2022-09-01T14:26:35.244Z,46.50
2022-09-01T14:27:30.212Z,47.50
2022-09-01T14:28:30.238Z,47.28
2022-09-01T14:29:30.210Z,47.77
2022-09-01T14:30:31.611Z,46.28
2022-09-01T14:31:30.172Z,46.58
2022-09-01T14:32:30.157Z,46.68
2022-09-01T14:33:30.165Z,46.46
2022-09-01T14:34:30.131Z,46.95
2022-09-01T14:35:30.123Z,47.08
2022-09-01T14:36:30.111Z,46.98
2022-09-01T14:37:35.121Z,46.78
2022-09-01T14:38:30.097Z,47.20
2022-09-01T14:39:30.079Z,46.83
2022-09-01T14:40:30.159Z,46.92
2022-09-01T14:41:30.054Z,47.62
2022-09-01T14:42:30.042Z,47.62
2022-09-01T14:43:30.046Z,47.22
2022-09-01T14:44:30.057Z,47.02
2022-09-01T14:45:30.010Z,46.42
2022-09-01T14:46:30.065Z,46.92
2022-09-01T14:47:29.989Z,46.42
2022-09-01T14:48:35.007Z,45.63
2022-09-01T14:49:29.970Z,46.33
2022-09-01T14:50:29.952Z,45.53
2022-09-01T14:52:30.930Z,45.83
2022-09-01T14:53:29.932Z,45.43
2022-09-01T14:54:29.908Z,45.53
2022-09-01T14:55:29.901Z,45.53
2022-09-01T14:56:29.891Z,45.43
2022-09-01T14:57:36.771Z,45.23
2022-09-01T14:58:30.872Z,45.33
2022-09-01T14:59:34.923Z,45.33
2022-09-01T15:00:29.875Z,45.03
2022-09-01T15:01:34.502Z,45.43
2022-09-01T15:02:30.816Z,45.33
2022-09-01T15:03:29.832Z,45.14
2022-09-01T15:04:29.855Z,45.43
2022-09-01T15:05:29.791Z,45.63
2022-09-01T15:06:30.773Z,46.03
2022-09-01T15:07:29.774Z,45.53
2022-09-01T15:08:29.761Z,45.33
2022-09-01T15:09:29.769Z,46.03
2022-09-01T15:10:34.751Z,45.93
2022-09-01T15:11:29.724Z,45.63
2022-09-01T15:12:29.708Z,46.23
2022-09-01T15:13:29.756Z,45.83
2022-09-01T15:14:29.683Z,45.71
2022-09-01T15:15:29.688Z,46.11
2022-09-01T15:16:29.677Z,46.11
2022-09-01T15:17:29.651Z,45.81
2022-09-01T15:18:29.683Z,45.49
2022-09-01T15:19:29.630Z,45.29
2022-09-01T15:20:29.636Z,45.68
2022-09-01T15:21:34.657Z,45.98
2022-09-01T15:22:29.599Z,46.48
2022-09-01T15:23:29.585Z,45.89
2022-09-01T15:24:29.584Z,45.59
2022-09-01T15:25:29.673Z,45.89
2022-09-01T15:26:29.559Z,45.86
2022-09-01T15:27:29.553Z,45.56
2022-09-01T15:28:29.546Z,45.98
2022-09-01T15:29:29.538Z,45.89
2022-09-01T15:30:30.010Z,45.37
2022-09-01T15:31:32.419Z,45.49
2022-09-01T15:32:34.518Z,45.49
2022-09-01T15:33:29.483Z,45.79
2022-09-01T15:34:29.460Z,45.59
2022-09-01T15:35:29.478Z,45.81
2022-09-01T15:36:29.508Z,45.90
2022-09-01T15:37:29.435Z,45.81
2022-09-01T15:38:30.849Z,46.01
2022-09-01T15:39:33.242Z,46.03
2022-09-01T15:40:30.460Z,45.81
2022-09-01T15:41:29.383Z,45.33
2022-09-01T15:42:29.370Z,45.83
2022-09-01T15:43:34.401Z,46.72
2022-09-01T15:44:29.350Z,46.03
2022-09-01T15:45:29.344Z,45.83
2022-09-01T15:46:29.446Z,46.13
2022-09-01T15:47:29.321Z,46.53
2022-09-01T15:48:29.330Z,46.23
2022-09-01T15:49:29.295Z,46.83
2022-09-01T15:50:29.285Z,46.53
2022-09-01T15:51:29.277Z,46.83
2022-09-01T15:52:29.262Z,46.92
2022-09-01T15:53:29.301Z,46.42
2022-09-01T15:54:34.260Z,46.62
2022-09-01T15:55:29.242Z,46.92
2022-09-01T15:56:29.229Z,45.83
2022-09-01T15:57:29.202Z,45.83
2022-09-01T15:58:39.122Z,46.55
2022-09-01T15:59:30.189Z,46.83
2022-09-01T16:00:29.216Z,46.84
2022-09-01T16:01:29.212Z,46.95
2022-09-01T16:02:29.238Z,46.53
2022-09-01T16:03:29.172Z,46.75
2022-09-01T16:04:29.125Z,46.45
2022-09-01T16:05:34.194Z,46.83
2022-09-01T16:06:29.111Z,47.25
2022-09-01T16:07:29.102Z,46.95
2022-09-01T16:08:29.128Z,47.25
2022-09-01T16:09:29.067Z,47.44
2022-09-01T16:10:30.366Z,48.24
2022-09-01T16:11:29.049Z,47.14
2022-09-01T16:12:29.042Z,47.84
2022-09-01T16:13:29.033Z,48.14
2022-09-01T16:14:29.015Z,47.27
2022-09-01T16:15:29.002Z,47.34
2022-09-01T16:16:36.249Z,47.64
2022-09-01T16:17:28.980Z,46.75
2022-09-01T16:18:28.981Z,46.87
2022-09-01T16:19:29.006Z,48.16
2022-09-01T16:20:28.948Z,47.47
2022-09-01T16:21:28.937Z,48.14
2022-09-01T16:22:28.986Z,47.74
2022-09-01T16:23:28.929Z,46.57
2022-09-01T16:24:28.911Z,47.37
2022-09-01T16:25:28.902Z,47.37
2022-09-01T16:26:28.883Z,47.05
2022-09-01T16:27:33.906Z,47.54
2022-09-01T16:28:28.870Z,47.47
2022-09-01T16:29:28.867Z,47.25
2022-09-01T16:30:28.843Z,48.16
2022-09-01T16:31:28.883Z,47.14
2022-09-01T16:32:28.812Z,47.77
2022-09-01T16:33:28.880Z,47.47
2022-09-01T16:34:28.807Z,47.17
2022-09-01T16:35:29.511Z,47.37
2022-09-01T16:36:28.768Z,47.84
2022-09-01T16:37:28.758Z,47.25
2022-09-01T16:38:33.855Z,47.77
2022-09-01T16:39:28.743Z,46.87
2022-09-01T16:40:28.860Z,47.47
2022-09-01T16:41:28.711Z,47.27
2022-09-01T16:42:28.702Z,47.47
2022-09-01T16:43:28.707Z,47.37
2022-09-01T16:44:28.681Z,48.16
2022-09-01T16:45:28.669Z,47.77
2022-09-01T16:46:28.732Z,48.36
2022-09-01T16:47:28.644Z,48.36
2022-09-01T16:48:28.637Z,47.56
2022-09-01T16:49:33.655Z,47.27
2022-09-01T16:50:28.613Z,47.66
2022-09-01T16:51:28.613Z,47.07
2022-09-01T16:52:28.642Z,47.17
2022-09-01T16:53:28.582Z,47.47
2022-09-01T16:54:28.591Z,47.37
2022-09-01T16:55:28.613Z,47.49
2022-09-01T16:56:28.572Z,47.49
2022-09-01T16:57:28.529Z,47.69
2022-09-01T16:58:28.520Z,47.07
2022-09-01T16:59:28.521Z,47.09
2022-09-01T17:00:33.560Z,47.29
2022-09-01T17:01:28.485Z,47.56
2022-09-01T17:02:28.529Z,47.56
2022-09-01T17:03:34.294Z,46.89
2022-09-01T17:04:29.706Z,46.97
2022-09-01T17:05:28.441Z,47.37
2022-09-01T17:06:28.432Z,46.99
2022-09-01T17:07:29.739Z,46.89
2022-09-01T17:08:28.415Z,46.99
2022-09-01T17:09:28.433Z,46.59
2022-09-01T17:10:28.400Z,46.59
2022-09-01T17:11:33.393Z,47.27
2022-09-01T17:12:28.363Z,47.17
2022-09-01T17:13:28.357Z,46.99
2022-09-01T17:14:28.351Z,46.59
2022-09-01T17:15:28.325Z,46.89